Time;durP1;ratioP1;P1;durP2;ratioP2;P2;SDS_P1;SDS_P2;PMS_P1;PMS_P2;Temp;Humidity;BMP_temperature;BMP_pressure;BME280_temperature;BME280_humidity;BME280_pressure;Samples;Min_cycle;Max_cycle;Signal;HPM_P1;HPM_P2
2022/02/11 00:09:53;;;;;;;36.95;21.75;;;;;;;3.40;85.08;100988.10;1769269;80;22006;-62
2022/02/11 00:13:00;;;;;;;33.38;22.00;;;;;;;3.42;84.97;100985.28;1761639;81;21590;-61
2022/02/11 00:16:05;;;;;;;33.83;22.07;;;;;;;3.42;84.81;100982.58;1769280;81;21209;-61
2022/02/11 00:19:12;;;;;;;32.93;23.12;;;;;;;3.42;84.68;100985.28;1768913;80;21840;-62
2022/02/11 00:22:18;;;;;;;36.20;23.32;;;;;;;3.42;84.64;100987.50;1767094;80;21206;-62
2022/02/11 00:25:24;;;;;;;35.52;21.87;;;;;;;3.45;84.50;100987.75;1769148;80;21344;-61
2022/02/11 00:35:06;;;;;;;36.35;22.50;;;;;;;3.52;84.37;100981.75;1769215;81;21343;-61
2022/02/11 00:38:11;;;;;;;35.00;22.40;;;;;;;3.55;84.27;100976.09;1769351;81;21225;-62
2022/02/11 01:04:28;;;;;;;30.15;20.52;;;;;;;3.75;83.32;100963.75;1769436;80;21363;-61
2022/02/11 01:07:34;;;;;;;30.60;20.90;;;;;;;3.75;83.29;100963.27;1769285;81;21789;-62
2022/02/11 01:10:41;;;;;;;29.32;19.15;;;;;;;3.75;83.24;100955.15;1769468;80;21364;-61
2022/02/11 01:13:49;;;;;;;29.60;20.25;;;;;;;3.75;83.06;100957.86;1769300;81;21222;-62
2022/02/11 01:16:57;;;;;;;28.85;19.73;;;;;;;3.78;82.94;100952.69;1769208;81;21189;-63
2022/02/11 01:20:18;;;;;;;31.17;20.95;;;;;;;3.79;82.88;100953.91;1769278;80;21363;-62
2022/02/11 01:26:37;;;;;;;;;;;;;;;3.84;82.68;100944.08;1765650;81;21711;-61
2022/02/11 01:30:03;;;;;;;39.35;22.90;;;;;;;3.84;82.56;100946.30;1769249;81;20201;-61
2022/02/11 01:33:25;;;;;;;55.55;33.70;;;;;;;3.84;82.50;100938.66;1769322;81;21722;-62
2022/02/11 01:39:57;;;;;;;44.85;30.02;;;;;;;3.89;82.30;100934.63;1769255;80;21426;-62
2022/02/11 01:46:42;;;;;;;32.93;21.27;;;;;;;3.86;82.21;100932.16;1727143;81;21260;-61
2022/02/11 02:06:12;;;;;;;30.20;20.02;;;;;;;3.55;81.90;100923.32;1769171;81;21209;-61
2022/02/11 02:26:04;;;;;;;;;;;;;;;3.42;82.69;100888.73;1771914;79;21213;-62
2022/02/11 02:39:19;;;;;;;29.60;19.02;;;;;;;3.62;83.06;100909.70;1769091;80;21706;-62
2022/02/11 02:58:59;;;;;;;28.98;18.70;;;;;;;3.90;82.76;100897.07;1769094;81;20253;-63
2022/02/11 03:02:08;;;;;;;32.30;21.10;;;;;;;3.94;82.66;100899.92;1769562;81;21213;-63
2022/02/11 03:35:20;;;;;;;30.05;18.87;;;;;;;4.17;81.32;100886.75;1769255;81;21402;-62
2022/02/11 03:55:38;;;;;;;35.08;23.32;;;;;;;4.22;81.30;100876.41;1735335;82;21231;-62
2022/02/11 04:20:20;;;;;;;32.58;22.98;;;;;;;4.13;81.13;100869.52;1722204;83;21386;-58
2022/02/11 04:55:25;;;;;;;37.38;23.25;;;;;;;4.39;81.58;100844.73;1735781;82;21243;-59
2022/02/11 05:01:53;;;;;;;35.10;23.85;;;;;;;4.44;81.66;100832.16;1735471;82;21219;-60
2022/02/11 05:05:06;;;;;;;32.38;23.02;;;;;;;4.45;81.71;100833.41;1735598;82;21229;-60
2022/02/11 05:08:11;;;;;;;;;;;;;;;4.46;81.66;100813.44;1737957;82;21173;-59
2022/02/11 05:11:16;;;;;;;29.87;19.87;;;;;;;4.46;81.55;100813.44;1734558;82;20271;-60
2022/02/11 05:14:22;;;;;;;30.62;20.43;;;;;;;4.45;81.67;100809.02;1701084;83;21355;-58
2022/02/11 05:17:26;;;;;;;32.90;21.82;;;;;;;4.46;81.89;100802.60;1736762;82;21215;-58
2022/02/11 05:20:32;;;;;;;29.12;21.33;;;;;;;4.49;82.04;100807.77;1701232;83;21880;-59
2022/02/11 05:23:37;;;;;;;33.55;21.65;;;;;;;4.50;81.94;100806.77;1736927;82;21291;-59
2022/02/11 05:26:43;;;;;;;34.23;22.58;;;;;;;4.48;82.02;100811.47;1703681;80;21378;-58
2022/02/11 05:29:48;;;;;;;33.05;21.60;;;;;;;4.52;82.13;100804.80;1697732;83;21249;-59
2022/02/11 05:32:54;;;;;;;33.02;21.87;;;;;;;4.55;82.14;100808.60;1690287;84;21326;-58
2022/02/11 05:36:00;;;;;;;39.98;24.98;;;;;;;4.56;82.11;100806.28;1701167;83;21329;-59
2022/02/11 05:39:05;;;;;;;41.65;24.95;;;;;;;4.59;82.15;100805.15;1704396;83;21217;-58
2022/02/11 05:42:14;;;;;;;41.30;25.32;;;;;;;4.61;82.20;100802.66;1704229;84;21221;-63
2022/02/11 05:45:24;;;;;;;38.90;24.95;;;;;;;4.66;82.19;100800.08;1715060;83;21273;-60
2022/02/11 05:48:33;;;;;;;44.67;26.33;;;;;;;4.69;82.12;100799.34;1717763;83;21549;-59
2022/02/11 05:51:38;;;;;;;44.65;27.65;;;;;;;4.72;82.16;100799.56;1712158;83;21214;-59
2022/02/11 05:54:43;;;;;;;42.17;26.50;;;;;;;4.76;82.21;100803.76;1706495;83;21793;-59
2022/02/11 05:57:48;;;;;;;37.48;24.02;;;;;;;4.80;82.22;100798.42;1712081;83;21292;-58
2022/02/11 06:00:54;;;;;;;32.75;21.97;;;;;;;4.84;82.20;100800.74;1714546;82;21230;-58
2022/02/11 06:04:00;;;;;;;35.45;22.35;;;;;;;4.88;82.14;100805.42;1687864;83;22099;-59
2022/02/11 06:07:05;;;;;;;35.90;24.57;;;;;;;4.90;82.12;100793.44;1702233;83;21275;-58
2022/02/11 06:10:11;;;;;;;35.52;23.02;;;;;;;4.93;82.02;100800.48;1715184;82;21180;-59
2022/02/11 06:13:17;;;;;;;37.15;24.80;;;;;;;4.98;81.94;100790.09;1723955;82;21244;-59
2022/02/11 06:16:24;;;;;;;40.67;25.80;;;;;;;5.03;81.85;100795.97;1705514;83;21327;-59
2022/02/11 06:19:32;;;;;;;35.92;24.27;;;;;;;5.08;81.83;100788.30;1717843;82;21232;-59
2022/02/11 06:22:43;;;;;;;37.42;25.68;;;;;;;5.14;81.70;100781.02;1702479;83;21770;-58
2022/02/11 06:25:48;;;;;;;38.73;25.45;;;;;;;5.18;81.56;100787.41;1699047;83;21218;-58
2022/02/11 06:28:55;;;;;;;43.33;28.00;;;;;;;5.24;81.59;100779.22;1693441;81;21871;-59
2022/02/11 06:32:03;;;;;;;39.13;26.85;;;;;;;5.28;81.58;100777.97;1709934;82;21338;-60
2022/02/11 06:35:11;;;;;;;39.53;26.17;;;;;;;5.33;81.48;100768.91;1696880;83;21938;-60
2022/02/11 06:38:17;;;;;;;46.58;29.20;;;;;;;5.40;81.41;100777.77;1708745;83;21210;-59
2022/02/11 06:41:21;;;;;;;41.45;27.40;;;;;;;5.44;81.23;100777.01;1657931;85;21234;-59
2022/02/11 06:44:28;;;;;;;47.20;28.20;;;;;;;5.46;81.09;100769.56;1710567;82;21280;-58
2022/02/11 06:47:34;;;;;;;37.42;25.62;;;;;;;5.51;80.98;100772.75;1686577;84;21431;-60
2022/02/11 06:50:42;;;;;;;35.73;23.73;;;;;;;5.56;80.86;100767.78;1683865;84;21375;-60
2022/02/11 06:53:48;;;;;;;36.48;24.18;;;;;;;5.60;80.67;100771.44;1678961;84;21237;-59
2022/02/11 06:56:54;;;;;;;37.80;22.98;;;;;;;5.65;80.51;100766.95;1718757;83;21355;-59
2022/02/11 07:00:04;;;;;;;35.98;23.77;;;;;;;5.67;80.24;100764.98;1696778;83;21751;-58
2022/02/11 07:03:06;;;;;;;35.95;23.20;;;;;;;5.68;80.03;100761.25;1714598;83;21208;-58
2022/02/11 07:06:12;;;;;;;35.52;23.12;;;;;;;5.69;79.89;100751.61;1693484;83;21797;-59
2022/02/11 07:09:19;;;;;;;32.53;21.33;;;;;;;5.71;79.67;100756.91;1702107;83;21728;-57
2022/02/11 07:12:25;;;;;;;32.45;21.27;;;;;;;5.71;79.53;100752.34;1683350;83;21182;-59
2022/02/11 07:15:34;;;;;;;35.00;22.35;;;;;;;5.70;79.33;100749.77;1702966;83;21767;-59
2022/02/11 07:18:40;;;;;;;33.35;23.12;;;;;;;5.68;79.28;100744.47;1691470;83;21229;-58
2022/02/11 07:21:46;;;;;;;37.78;24.10;;;;;;;5.71;79.20;100744.68;1699236;83;21466;-61
2022/02/11 07:24:53;;;;;;;35.73;23.65;;;;;;;5.75;79.14;100743.43;1716960;82;21346;-59
2022/02/11 07:27:59;;;;;;;37.33;24.02;;;;;;;5.78;79.03;100738.59;1711299;83;21314;-59
2022/02/11 07:31:05;;;;;;;39.38;24.35;;;;;;;5.78;78.83;100735.87;1676826;82;21247;-59
2022/02/11 07:34:11;;;;;;;35.50;23.10;;;;;;;5.81;78.83;100734.73;1764141;80;21182;-57
2022/02/11 07:37:17;;;;;;;37.13;22.05;;;;;;;5.85;78.77;100741.66;1768416;80;21181;-60
2022/02/11 07:40:24;;;;;;;34.78;21.75;;;;;;;5.89;78.63;100726.79;1766591;80;21201;-60
2022/02/11 07:43:29;;;;;;;33.40;21.35;;;;;;;5.97;78.61;100729.67;1768000;80;21192;-59
2022/02/11 07:46:36;;;;;;;33.13;20.60;;;;;;;6.07;78.45;100729.22;1768031;80;21273;-58
2022/02/11 07:49:42;;;;;;;30.27;19.65;;;;;;;6.14;78.10;100739.03;1767770;80;21849;-60
2022/02/11 07:52:48;;;;;;;30.82;18.85;;;;;;;6.20;77.94;100721.64;1767411;80;21193;-59
2022/02/11 07:55:55;;;;;;;29.25;19.12;;;;;;;6.26;77.67;100729.27;1766932;79;21264;-60
2022/02/11 07:59:01;;;;;;;25.62;19.17;;;;;;;6.29;77.36;100727.63;1752822;80;21225;-58
2022/02/11 08:02:11;;;;;;;26.35;18.15;;;;;;;6.35;77.23;100724.34;1757043;80;21632;-59
2022/02/11 08:05:17;;;;;;;26.65;18.45;;;;;;;6.38;76.92;100728.13;1759574;79;21284;-59
2022/02/11 08:08:27;;;;;;;29.27;18.67;;;;;;;6.38;76.73;100733.56;1765005;80;21510;-58
2022/02/11 08:11:32;;;;;;;25.92;16.85;;;;;;;6.36;76.62;100728.77;1761973;80;21216;-60
2022/02/11 08:14:36;;;;;;;26.25;17.95;;;;;;;6.33;76.41;100726.85;1746795;80;21643;-62
2022/02/11 08:17:43;;;;;;;28.12;17.92;;;;;;;6.29;76.47;100724.91;1738134;82;21549;-60
2022/02/11 08:20:48;;;;;;;28.02;18.52;;;;;;;6.29;76.55;100727.63;1767924;80;21213;-59
2022/02/11 08:23:56;;;;;;;31.30;19.62;;;;;;;6.28;76.39;100723.16;1769104;79;21193;-59
2022/02/11 08:27:01;;;;;;;29.85;18.80;;;;;;;6.27;76.38;100721.46;1759658;80;21248;-58
2022/02/11 08:30:06;;;;;;;27.20;18.25;;;;;;;6.28;76.34;100716.37;1738074;79;21243;-59
2022/02/11 08:33:13;;;;;;;28.57;18.65;;;;;;;6.32;76.26;100724.63;1738780;82;21255;-59
2022/02/11 08:36:23;;;;;;;30.05;17.52;;;;;;;6.36;76.23;100712.97;1738055;82;21189;-59
2022/02/11 08:39:27;;;;;;;23.42;16.45;;;;;;;6.43;75.95;100704.59;1766181;79;21201;-60
2022/02/11 08:42:37;;;;;;;27.17;16.85;;;;;;;6.52;75.83;100707.31;1762474;81;21221;-59
2022/02/11 08:45:42;;;;;;;30.88;19.02;;;;;;;6.61;75.52;100703.73;1768703;81;21216;-61
2022/02/11 08:48:54;;;;;;;30.72;19.42;;;;;;;6.72;75.30;100709.06;1785148;79;21367;-60
2022/02/11 08:52:03;;;;;;;24.52;16.67;;;;;;;6.81;74.94;100705.47;1728037;80;21217;-59
2022/02/11 08:55:09;;;;;;;21.77;15.78;;;;;;;6.88;74.63;100703.88;1770759;79;21299;-60
2022/02/11 08:58:19;;;;;;;23.60;16.50;;;;;;;6.92;74.26;100694.43;1764932;79;21211;-61
2022/02/11 09:01:24;;;;;;;24.47;16.23;;;;;;;6.98;74.03;100697.92;1775951;79;21196;-61
2022/02/11 09:04:31;;;;;;;23.35;15.85;;;;;;;7.03;73.82;100690.19;1763935;79;21192;-60
2022/02/11 09:07:51;;;;;;;22.90;15.98;;;;;;;7.10;73.61;100691.30;1766205;79;21871;-61
2022/02/11 09:11:19;;;;;;;23.70;15.50;;;;;;;7.21;73.46;100692.53;1767306;79;21193;-58
2022/02/11 09:14:25;;;;;;;23.47;15.65;;;;;;;7.31;73.14;100685.17;1768862;80;21853;-59
2022/02/11 09:17:31;;;;;;;20.12;14.78;;;;;;;7.36;72.92;100680.14;1769178;80;21170;-59
2022/02/11 09:20:37;;;;;;;22.50;15.05;;;;;;;7.44;72.79;100679.39;1766458;79;22106;-58
2022/02/11 09:23:42;;;;;;;21.12;15.48;;;;;;;7.49;72.49;100673.00;1768054;80;21275;-59
2022/02/11 09:26:49;;;;;;;30.92;19.62;;;;;;;7.54;72.39;100671.56;1748389;81;21201;-60
2022/02/11 09:29:55;;;;;;;25.43;16.60;;;;;;;7.63;72.16;100666.56;1765363;80;21374;-59
2022/02/11 09:33:01;;;;;;;23.47;15.28;;;;;;;7.76;72.05;100668.08;1765114;80;21873;-59
2022/02/11 09:36:10;;;;;;;23.70;16.12;;;;;;;7.84;71.64;100659.51;1763850;81;21317;-59
2022/02/11 09:39:18;;;;;;;22.90;15.90;;;;;;;7.88;71.44;100660.91;1767779;81;21229;-59
2022/02/11 09:42:25;;;;;;;26.65;18.15;;;;;;;7.97;71.33;100665.97;1762749;81;21205;-61
2022/02/11 09:45:33;;;;;;;29.02;19.57;;;;;;;8.08;71.15;100673.93;1736127;81;21259;-61
2022/02/11 09:48:38;;;;;;;29.37;20.43;;;;;;;8.13;70.90;100664.30;1765545;81;21189;-60
2022/02/11 09:51:42;;;;;;;29.25;18.05;;;;;;;8.17;70.73;100661.59;1770057;80;21205;-61
2022/02/11 09:54:48;;;;;;;32.80;20.60;;;;;;;8.23;70.64;100667.83;1769478;79;21734;-61
2022/02/11 09:57:53;;;;;;;28.25;18.52;;;;;;;8.33;70.51;100671.36;1769621;80;21227;-61
2022/02/11 10:00:58;;;;;;;32.20;19.85;;;;;;;8.43;70.36;100663.10;1768747;79;21228;-61
2022/02/11 10:04:27;;;;;;;31.35;19.27;;;;;;;8.53;70.15;100666.09;1767150;80;21169;-61
2022/02/11 10:07:33;;;;;;;28.25;18.95;;;;;;;8.63;70.00;100657.83;1755821;80;21735;-60
2022/02/11 10:10:39;;;;;;;25.23;18.35;;;;;;;8.74;69.80;100659.81;1736728;82;21225;-61
2022/02/11 10:13:46;;;;;;;30.95;17.95;;;;;;;8.86;69.66;100650.34;1736678;82;21200;-60
2022/02/11 10:17:12;;;;;;;25.97;17.07;;;;;;;8.97;69.43;100648.73;1737214;82;21923;-62
2022/02/11 10:20:18;;;;;;;27.22;17.90;;;;;;;9.09;69.21;100637.92;1738310;82;21383;-61
2022/02/11 10:23:32;;;;;;;23.00;15.90;;;;;;;9.23;68.93;100634.25;1758439;81;21209;-61
2022/02/11 10:26:38;;;;;;;23.32;15.93;;;;;;;9.32;68.54;100619.62;1769560;81;21702;-60
2022/02/11 10:29:49;;;;;;;22.13;15.20;;;;;;;9.32;68.27;100612.29;1770139;79;21722;-61
2022/02/11 10:32:59;;;;;;;22.48;16.20;;;;;;;9.38;68.25;100608.91;1759553;79;21201;-61
2022/02/11 10:36:06;;;;;;;21.55;14.63;;;;;;;9.49;68.09;100607.25;1755708;80;21589;-62
2022/02/11 10:39:30;;;;;;;20.92;15.75;;;;;;;9.62;67.83;100600.83;1746535;79;21247;-62
2022/02/11 10:42:52;;;;;;;21.70;14.93;;;;;;;9.78;67.64;100596.80;1764413;81;21614;-62
2022/02/11 10:46:01;;;;;;;18.45;13.38;;;;;;;9.94;67.60;100596.81;1768711;79;21206;-61
2022/02/11 10:49:08;;;;;;;25.82;18.37;;;;;;;10.13;67.43;100593.81;1769733;80;21216;-60
2022/02/11 10:52:22;;;;;;;19.95;14.53;;;;;;;10.28;67.12;100593.52;1734204;82;21181;-62
2022/02/11 10:55:30;;;;;;;20.48;15.00;;;;;;;10.44;66.91;100592.67;1734067;82;21224;-61
2022/02/11 10:58:37;;;;;;;20.88;15.08;;;;;;;10.58;66.57;100592.00;1697648;84;21239;-62
2022/02/11 11:01:47;;;;;;;29.87;17.15;;;;;;;10.67;66.21;100590.99;1697648;83;21258;-62
2022/02/11 11:05:06;;;;;;;29.42;18.37;;;;;;;10.70;65.91;100591.15;1689939;82;21296;-62
2022/02/11 11:08:11;;;;;;;23.50;17.02;;;;;;;10.58;65.70;100596.09;1719434;82;21793;-64
2022/02/11 11:11:17;;;;;;;22.07;15.35;;;;;;;10.44;65.80;100601.75;1767565;81;21213;-62
2022/02/11 11:14:25;;;;;;;22.10;15.18;;;;;;;10.31;65.94;100597.28;1769023;79;21271;-65
2022/02/11 11:17:30;;;;;;;18.77;14.63;;;;;;;10.28;66.14;100583.95;1770507;80;21188;-66
2022/02/11 11:20:36;;;;;;;20.12;15.68;;;;;;;10.24;66.12;100577.08;1769382;79;21279;-65
2022/02/11 11:23:48;;;;;;;20.75;15.35;;;;;;;10.29;66.31;100580.17;1761351;80;21773;-63
2022/02/11 11:26:57;;;;;;;20.25;15.25;;;;;;;10.45;66.30;100583.42;1769005;80;21749;-63
2022/02/11 11:30:18;;;;;;;28.95;21.65;;;;;;;10.59;65.87;100578.67;1742147;80;21738;-63
2022/02/11 11:33:27;;;;;;;23.50;16.12;;;;;;;10.66;65.75;100570.09;1747524;80;21193;-63
2022/02/11 11:36:32;;;;;;;18.55;14.30;;;;;;;10.67;65.37;100573.70;1762687;80;21714;-63
2022/02/11 11:39:40;;;;;;;22.48;15.25;;;;;;;10.67;65.50;100572.33;1736917;79;21296;-62
2022/02/11 11:42:46;;;;;;;21.93;15.93;;;;;;;10.72;65.42;100570.77;1762682;80;21807;-64
2022/02/11 11:45:51;;;;;;;27.05;17.25;;;;;;;10.76;65.37;100573.52;1767420;80;21683;-62
2022/02/11 11:49:20;;;;;;;22.95;16.73;;;;;;;10.82;65.13;100576.94;1765910;80;21718;-63
2022/02/11 11:52:25;;;;;;;18.37;12.33;;;;;;;10.87;64.96;100570.43;1756146;80;21188;-63
2022/02/11 11:55:31;;;;;;;15.90;11.00;;;;;;;10.88;63.88;100573.49;1738939;80;21621;-62
2022/02/11 11:58:52;;;;;;;18.45;11.18;;;;;;;10.80;62.91;100565.28;1739175;82;21758;-62
2022/02/11 12:02:05;;;;;;;18.55;12.98;;;;;;;10.68;62.08;100561.20;1748799;80;21252;-62
2022/02/11 12:05:12;;;;;;;20.07;13.03;;;;;;;10.56;61.67;100562.56;1764532;80;21574;-63
2022/02/11 12:08:18;;;;;;;21.65;13.83;;;;;;;10.45;62.00;100561.03;1761228;81;21224;-62
2022/02/11 12:11:24;;;;;;;21.87;14.38;;;;;;;10.40;62.86;100560.69;1767997;80;21206;-62
2022/02/11 12:14:33;;;;;;;19.23;14.85;;;;;;;10.33;63.37;100555.56;1768115;80;21212;-63
2022/02/11 12:17:38;;;;;;;24.92;17.02;;;;;;;10.27;63.68;100554.89;1766272;80;21185;-64
2022/02/11 12:20:44;;;;;;;26.85;18.27;;;;;;;10.26;63.90;100564.59;1761207;80;22527;-62
2022/02/11 12:27:30;;;;;;;29.57;20.05;;;;;;;10.24;64.33;100560.67;1765917;80;21184;-62
2022/02/11 12:30:30;;;;;;;23.15;16.50;;;;;;;10.24;64.40;100557.93;1759272;80;21479;-64
2022/02/11 12:33:40;;;;;;;20.88;15.58;;;;;;;10.24;64.34;100563.40;1751036;80;21196;-62
2022/02/11 12:36:47;;;;;;;20.65;14.68;;;;;;;10.21;64.44;100550.59;1747720;80;21178;-65
2022/02/11 12:39:55;;;;;;;24.57;17.15;;;;;;;10.19;64.57;100551.27;1745854;81;21502;-63
2022/02/11 12:43:04;;;;;;;26.25;19.17;;;;;;;10.15;64.60;100551.25;1762970;81;21189;-60
2022/02/11 12:46:11;;;;;;;30.20;20.17;;;;;;;10.09;64.69;100554.67;1768273;79;21201;-62
2022/02/11 12:49:16;;;;;;;26.05;16.93;;;;;;;10.00;64.68;100563.36;1736063;81;21312;-62
2022/02/11 12:52:27;;;;;;;41.90;23.02;;;;;;;9.89;64.87;100570.51;1759419;81;21557;-65
2022/02/11 12:55:36;;;;;;;40.43;24.23;;;;;;;9.82;64.99;100576.28;1768231;81;21165;-62
2022/02/11 12:58:40;;;;;;;24.65;16.02;;;;;;;9.69;64.62;100570.42;1765039;81;21734;-63
2022/02/11 13:01:46;;;;;;;20.45;13.80;;;;;;;9.59;64.46;100572.45;1733323;82;21561;-61
2022/02/11 13:04:53;;;;;;;30.95;18.82;;;;;;;9.52;64.31;100575.48;1733297;81;21808;-63
2022/02/11 13:08:03;;;;;;;37.73;22.85;;;;;;;9.44;64.26;100578.19;1716162;83;21245;-61
2022/02/11 13:11:14;;;;;;;26.55;17.30;;;;;;;9.37;63.97;100585.31;1683839;84;21223;-61
2022/02/11 13:14:19;;;;;;;28.15;18.35;;;;;;;9.23;63.96;100583.19;1710421;82;21295;-62
2022/02/11 13:17:25;;;;;;;28.25;17.40;;;;;;;9.13;64.11;100592.03;1720324;83;21202;-62
2022/02/11 13:20:32;;;;;;;27.60;18.35;;;;;;;9.03;64.18;100591.27;1717510;82;21198;-62
2022/02/11 13:23:41;;;;;;;24.65;18.23;;;;;;;8.91;64.48;100583.85;1690220;84;21426;-61
2022/02/11 13:26:47;;;;;;;28.32;17.05;;;;;;;8.81;64.66;100592.67;1738039;82;21208;-61
2022/02/11 13:29:55;;;;;;;25.90;17.80;;;;;;;8.69;64.95;100587.11;1738615;81;21224;-61
2022/02/11 13:33:04;;;;;;;24.35;16.62;;;;;;;8.53;65.39;100584.24;1730020;82;21200;-61
2022/02/11 13:36:18;;;;;;;28.83;18.52;;;;;;;8.42;65.88;100580.92;1737965;79;21268;-61
2022/02/11 13:39:35;;;;;;;31.05;20.12;;;;;;;8.32;66.27;100585.59;1737311;81;21600;-61
2022/02/11 13:42:41;;;;;;;41.18;24.80;;;;;;;8.22;66.70;100591.59;1767015;81;21205;-62
2022/02/11 13:46:03;;;;;;;51.10;30.65;;;;;;;8.15;67.13;100591.88;1709503;82;21204;-61
2022/02/11 13:49:16;;;;;;;31.68;21.75;;;;;;;8.11;67.45;100593.19;1690677;83;21809;-61
2022/02/11 13:55:50;;;;;;;27.87;19.48;;;;;;;8.02;67.97;100596.85;1691032;83;21228;-62
2022/02/11 13:59:23;;;;;;;25.80;18.20;;;;;;;7.99;68.18;100608.91;1690452;83;21182;-62
2022/02/11 14:02:27;;;;;;;28.30;18.80;;;;;;;7.98;68.25;100604.97;1676450;83;21785;-61
2022/02/11 14:05:32;;;;;;;23.32;17.77;;;;;;;7.94;68.35;100610.39;1707956;82;21868;-61
2022/02/11 14:08:54;;;;;;;26.75;18.57;;;;;;;7.89;68.45;100616.80;1702157;84;21308;-61
2022/02/11 14:12:00;;;;;;;25.02;17.70;;;;;;;7.84;68.59;100617.76;1719611;83;21838;-60
2022/02/11 14:15:08;;;;;;;26.07;19.32;;;;;;;7.77;68.83;100619.40;1703866;84;21229;-61
2022/02/11 14:18:14;;;;;;;25.75;18.90;;;;;;;7.70;68.99;100617.78;1718738;83;21368;-61
2022/02/11 14:21:24;;;;;;;25.95;18.90;;;;;;;7.60;69.28;100628.73;1702724;84;21201;-61
2022/02/11 14:24:31;;;;;;;30.37;21.55;;;;;;;7.57;69.59;100638.57;1716005;83;21220;-61
2022/02/11 14:27:37;;;;;;;33.85;23.30;;;;;;;7.51;69.82;100633.73;1717370;83;21737;-60
2022/02/11 14:30:44;;;;;;;33.30;22.42;;;;;;;7.45;70.08;100638.39;1718123;83;21355;-62
2022/02/11 14:33:50;;;;;;;51.58;30.55;;;;;;;7.44;70.29;100645.35;1698379;83;21323;-61
2022/02/11 14:36:56;;;;;;;53.40;31.68;;;;;;;7.40;70.45;100648.88;1735546;79;21274;-61
2022/02/11 14:40:00;;;;;;;62.67;39.92;;;;;;;7.38;70.62;100648.19;1708706;83;21280;-61
2022/02/11 14:43:08;;;;;;;63.20;42.75;;;;;;;7.29;70.81;100658.58;1723097;83;21742;-62
2022/02/11 14:46:12;;;;;;;32.63;22.13;;;;;;;7.22;71.11;100669.73;1709462;81;21231;-62
2022/02/11 14:49:18;;;;;;;29.65;20.57;;;;;;;7.17;71.40;100675.24;1693817;83;21219;-61
2022/02/11 14:52:22;;;;;;;30.97;21.05;;;;;;;7.08;71.58;100669.33;1693171;84;21698;-61
2022/02/11 14:55:28;;;;;;;32.30;21.80;;;;;;;7.01;71.86;100682.66;1693548;84;21216;-62
2022/02/11 14:58:36;;;;;;;30.90;21.45;;;;;;;6.94;72.16;100684.27;1678542;84;21662;-61
2022/02/11 15:01:45;;;;;;;30.35;20.55;;;;;;;6.89;72.47;100687.05;1692637;84;21197;-61
2022/02/11 15:04:52;;;;;;;32.42;21.90;;;;;;;6.86;72.71;100693.66;1712373;82;21727;-60
2022/02/11 15:07:59;;;;;;;30.35;21.05;;;;;;;6.82;72.94;100701.73;1717549;83;21210;-61
2022/02/11 15:11:08;;;;;;;29.18;20.43;;;;;;;6.74;73.15;100707.03;1717887;82;21711;-62
2022/02/11 15:14:14;;;;;;;33.40;22.42;;;;;;;6.67;73.40;100705.91;1704010;82;21229;-62
2022/02/11 15:17:19;;;;;;;34.35;22.65;;;;;;;6.63;73.64;100711.26;1718958;83;21587;-61
2022/02/11 15:20:24;;;;;;;33.67;22.90;;;;;;;6.60;73.83;100718.34;1718317;82;21615;-62
2022/02/11 15:23:30;;;;;;;34.03;22.62;;;;;;;6.56;73.97;100718.78;1718813;83;21225;-62
2022/02/11 15:26:36;;;;;;;34.00;22.73;;;;;;;6.53;74.20;100737.61;1718936;83;21228;-61
2022/02/11 15:29:43;;;;;;;33.90;23.02;;;;;;;6.51;74.37;100734.17;1718122;82;21236;-61
2022/02/11 15:32:50;;;;;;;42.60;26.52;;;;;;;6.49;74.47;100733.93;1718307;83;21269;-61
2022/02/11 15:35:56;;;;;;;38.65;24.52;;;;;;;6.44;74.60;100733.52;1718129;82;21719;-61
2022/02/11 15:39:02;;;;;;;36.08;24.10;;;;;;;6.41;74.81;100730.56;1719424;80;21258;-61
2022/02/11 15:42:08;;;;;;;41.23;27.73;;;;;;;6.37;74.90;100736.43;1717542;83;21205;-62
2022/02/11 15:45:15;;;;;;;39.40;26.02;;;;;;;6.35;75.03;100739.78;1718062;82;21236;-61
2022/02/11 15:48:23;;;;;;;39.65;25.02;;;;;;;6.34;75.15;100746.23;1718105;83;21221;-60
2022/02/11 15:51:31;;;;;;;41.42;24.87;;;;;;;6.31;75.18;100750.59;1717770;83;21878;-61
2022/02/11 15:54:37;;;;;;;36.90;23.02;;;;;;;6.28;75.26;100747.63;1709797;83;21237;-61
2022/02/11 15:57:44;;;;;;;44.73;24.65;;;;;;;6.26;75.34;100752.37;1704392;83;21210;-60
2022/02/11 16:00:51;;;;;;;42.70;25.12;;;;;;;6.24;75.44;100749.41;1716807;82;21213;-62
2022/02/11 16:03:59;;;;;;;39.20;24.18;;;;;;;6.22;75.52;100752.27;1717581;82;21586;-61
2022/02/11 16:07:05;;;;;;;42.95;27.62;;;;;;;6.22;75.61;100759.55;1718003;83;21841;-61
2022/02/11 16:10:13;;;;;;;44.18;26.70;;;;;;;6.22;75.68;100757.71;1717642;82;21268;-61
2022/02/11 16:13:22;;;;;;;47.75;29.65;;;;;;;6.22;75.72;100763.64;1715266;83;21206;-61
2022/02/11 16:16:28;;;;;;;40.58;27.05;;;;;;;6.23;75.75;100769.45;1718353;83;21265;-62
2022/02/11 16:19:35;;;;;;;43.98;29.10;;;;;;;6.24;75.75;100779.31;1709395;82;21260;-64
2022/02/11 16:22:40;;;;;;;44.30;27.80;;;;;;;6.26;75.79;100794.51;1704261;84;21201;-62
2022/02/11 16:25:46;;;;;;;44.85;27.85;;;;;;;6.27;75.70;100792.14;1704577;84;21241;-61
2022/02/11 16:28:52;;;;;;;42.08;24.82;;;;;;;6.27;75.69;100796.22;1704843;84;21226;-61
2022/02/11 16:31:59;;;;;;;35.50;23.20;;;;;;;6.24;75.61;100796.98;1704678;84;21206;-62
2022/02/11 16:35:06;;;;;;;40.73;25.55;;;;;;;6.16;75.65;100807.20;1704872;84;21226;-62
2022/02/11 16:38:16;;;;;;;37.30;24.10;;;;;;;6.09;75.80;100810.95;1705230;84;21233;-60
2022/02/11 16:41:25;;;;;;;42.17;25.77;;;;;;;6.03;75.95;100809.28;1711854;83;21305;-61
2022/02/11 16:44:30;;;;;;;41.63;25.60;;;;;;;6.00;76.11;100823.14;1701010;83;21226;-61
2022/02/11 16:47:37;;;;;;;31.52;22.82;;;;;;;5.99;76.23;100835.02;1672829;84;21745;-61
2022/02/11 16:50:43;;;;;;;40.67;26.80;;;;;;;5.98;76.31;100831.92;1765684;80;21300;-61
2022/02/11 16:53:50;;;;;;;59.65;33.85;;;;;;;5.95;76.48;100835.78;1740608;80;21208;-62
2022/02/11 16:56:56;;;;;;;54.48;32.10;;;;;;;5.96;76.61;100832.58;1729205;83;21276;-62
2022/02/11 17:00:03;;;;;;;46.68;29.67;;;;;;;5.96;76.65;100834.77;1738921;80;21184;-62
2022/02/11 17:03:08;;;;;;;40.78;25.55;;;;;;;5.98;76.68;100856.38;1755483;81;21181;-61
2022/02/11 17:06:14;;;;;;;42.38;26.05;;;;;;;5.97;76.69;100847.39;1766268;80;21873;-62
2022/02/11 17:09:19;;;;;;;38.38;22.98;;;;;;;5.95;76.67;100848.50;1766944;80;21182;-61
2022/02/11 17:12:26;;;;;;;36.05;23.05;;;;;;;5.92;76.67;100851.00;1766885;80;21570;-61
2022/02/11 17:15:32;;;;;;;34.88;21.95;;;;;;;5.90;76.68;100852.98;1754663;80;21192;-62
2022/02/11 17:18:39;;;;;;;33.08;22.15;;;;;;;5.88;76.77;100848.17;1767296;80;21224;-61
2022/02/11 17:21:48;;;;;;;33.75;22.55;;;;;;;5.90;76.76;100853.47;1768350;81;21247;-62
2022/02/11 17:24:53;;;;;;;31.82;21.93;;;;;;;5.89;76.73;100862.62;1746951;81;21310;-61
2022/02/11 17:28:00;;;;;;;34.73;21.27;;;;;;;5.87;76.61;100857.82;1770361;80;21938;-61
2022/02/11 17:31:06;;;;;;;36.35;22.60;;;;;;;5.85;76.69;100857.12;1760136;80;21255;-62
2022/02/11 17:34:14;;;;;;;34.05;21.55;;;;;;;5.85;76.69;100861.19;1742802;81;21812;-62
2022/02/11 17:37:20;;;;;;;36.95;22.07;;;;;;;5.86;76.72;100862.91;1747476;80;21209;-61
2022/02/11 17:40:27;;;;;;;33.83;22.45;;;;;;;5.86;76.73;100873.77;1770802;79;21275;-62
2022/02/11 17:43:32;;;;;;;34.40;22.25;;;;;;;5.86;76.57;100873.77;1769524;80;21255;-62
2022/02/11 17:46:39;;;;;;;32.58;20.65;;;;;;;5.80;76.53;100887.34;1770745;80;21154;-63
2022/02/11 17:49:46;;;;;;;31.87;21.27;;;;;;;5.73;76.50;100893.45;1770104;81;21786;-63
2022/02/11 17:52:51;;;;;;;33.00;20.90;;;;;;;5.69;76.58;100896.91;1770372;81;21181;-62
2022/02/11 17:55:56;;;;;;;32.35;21.68;;;;;;;5.71;76.64;100896.78;1769691;80;21773;-62
2022/02/11 17:59:00;;;;;;;31.55;21.55;;;;;;;5.66;76.44;100897.18;1739584;81;21197;-63
2022/02/11 18:02:05;;;;;;;30.17;20.08;;;;;;;5.59;76.48;100900.08;1768897;80;22045;-62